createdAt,value
2023-03-03T00:00:45.486Z,4.80
2023-03-03T00:03:15.958Z,4.78
2023-03-03T00:05:42.862Z,4.77
2023-03-03T00:08:11.157Z,4.76
2023-03-03T00:10:38.793Z,4.74
2023-03-03T00:13:13.381Z,4.73
2023-03-03T00:15:40.397Z,4.70
2023-03-03T00:18:19.772Z,4.70
2023-03-03T00:20:53.503Z,4.69
2023-03-03T00:23:24.848Z,4.67
2023-03-03T00:25:53.535Z,4.66
2023-03-03T00:28:32.520Z,4.67
2023-03-03T00:31:01.671Z,4.69
2023-03-03T00:33:33.995Z,4.67
2023-03-03T00:36:19.315Z,4.67
2023-03-03T00:38:46.562Z,4.66
2023-03-03T00:41:31.398Z,4.66
2023-03-03T00:43:58.579Z,4.69
2023-03-03T00:46:25.364Z,4.69
2023-03-03T00:48:52.867Z,4.68
2023-03-03T00:51:30.933Z,4.70
2023-03-03T00:53:58.293Z,4.69
2023-03-03T00:56:25.238Z,4.69
2023-03-03T00:58:52.332Z,4.71
2023-03-03T01:01:21.773Z,4.71
2023-03-03T01:03:51.819Z,4.74
2023-03-03T01:06:18.538Z,4.75
2023-03-03T01:08:45.267Z,4.76
2023-03-03T01:11:28.631Z,4.75
2023-03-03T01:13:56.676Z,4.77
2023-03-03T01:16:23.510Z,4.76
2023-03-03T01:18:50.697Z,4.76
2023-03-03T01:21:17.485Z,4.77
2023-03-03T01:23:44.151Z,4.78
2023-03-03T01:26:11.080Z,4.78
2023-03-03T01:28:38.825Z,4.79
2023-03-03T01:31:06.039Z,4.81
2023-03-03T01:33:35.140Z,4.81
2023-03-03T01:36:03.519Z,4.81
2023-03-03T01:38:30.487Z,4.80
2023-03-03T01:40:59.301Z,4.79
2023-03-03T01:43:31.149Z,4.79
2023-03-03T01:46:03.879Z,4.81
2023-03-03T01:48:35.184Z,4.80
2023-03-03T01:51:10.673Z,4.80
2023-03-03T01:53:43.617Z,4.80
2023-03-03T01:56:12.070Z,4.81
2023-03-03T01:58:44.200Z,4.81
2023-03-03T02:01:31.553Z,4.80
2023-03-03T02:03:59.011Z,4.83
2023-03-03T02:06:33.821Z,4.81
2023-03-03T02:09:12.348Z,4.81
2023-03-03T02:11:41.253Z,4.81
2023-03-03T02:14:07.992Z,4.83
2023-03-03T02:16:35.424Z,4.84
2023-03-03T02:19:02.199Z,4.85
2023-03-03T02:21:29.143Z,4.85
2023-03-03T02:24:34.629Z,4.84
2023-03-03T02:27:01.521Z,4.85
2023-03-03T02:29:29.452Z,4.85
2023-03-03T02:31:57.356Z,4.86
2023-03-03T02:34:25.306Z,4.85
2023-03-03T02:36:52.728Z,4.86
2023-03-03T02:39:26.550Z,4.86
2023-03-03T02:42:03.571Z,4.86
2023-03-03T02:44:36.795Z,4.86
2023-03-03T02:47:03.697Z,4.88
2023-03-03T02:49:33.796Z,4.87
2023-03-03T02:52:03.238Z,4.87
2023-03-03T02:54:31.222Z,4.87
2023-03-03T02:57:00.173Z,4.87
2023-03-03T02:59:27.559Z,4.86
2023-03-03T03:01:57.414Z,4.88
2023-03-03T03:04:26.229Z,4.86
2023-03-03T03:06:54.697Z,4.85
2023-03-03T03:09:23.609Z,4.82
2023-03-03T03:11:52.115Z,4.83
2023-03-03T03:14:23.419Z,4.83
2023-03-03T03:16:50.635Z,4.82
2023-03-03T03:19:17.318Z,4.84
2023-03-03T03:21:45.038Z,4.84
2023-03-03T03:24:11.764Z,4.85
2023-03-03T03:26:42.853Z,4.84
2023-03-03T03:29:11.096Z,4.85
2023-03-03T03:31:39.286Z,4.82
2023-03-03T03:34:06.144Z,4.82
2023-03-03T03:36:33.655Z,4.82
2023-03-03T03:39:02.877Z,4.81
2023-03-03T03:41:30.562Z,4.82
2023-03-03T03:43:57.453Z,4.82
2023-03-03T03:46:29.090Z,4.82
2023-03-03T03:48:56.550Z,4.81
2023-03-03T03:51:23.286Z,4.81
2023-03-03T03:53:50.088Z,4.81
2023-03-03T03:56:17.662Z,4.81
2023-03-03T03:58:47.381Z,4.81
2023-03-03T04:01:15.226Z,4.80
2023-03-03T04:03:46.686Z,4.79
2023-03-03T04:06:17.376Z,4.79
2023-03-03T04:08:44.409Z,4.80
2023-03-03T04:11:11.478Z,4.78
2023-03-03T04:13:38.359Z,4.76
2023-03-03T04:16:07.487Z,4.74
2023-03-03T04:18:35.594Z,4.73
2023-03-03T04:21:03.426Z,4.71
2023-03-03T04:23:30.332Z,4.72
2023-03-03T04:25:57.084Z,4.71
2023-03-03T04:28:25.394Z,4.73
2023-03-03T04:30:52.666Z,4.72
2023-03-03T04:33:21.411Z,4.72
2023-03-03T04:35:49.287Z,4.72
2023-03-03T04:38:16.164Z,4.71
2023-03-03T04:40:43.601Z,4.71
2023-03-03T04:43:13.025Z,4.73
2023-03-03T04:45:39.856Z,4.74
2023-03-03T04:48:07.464Z,4.75
2023-03-03T04:50:35.031Z,4.76
2023-03-03T04:53:02.168Z,4.76
2023-03-03T04:55:28.850Z,4.77
2023-03-03T04:57:55.620Z,4.78
2023-03-03T05:00:23.032Z,4.80
2023-03-03T05:02:49.921Z,4.81
2023-03-03T05:05:16.927Z,4.82
2023-03-03T05:07:43.833Z,4.83
2023-03-03T05:10:11.114Z,4.83
2023-03-03T05:12:37.955Z,4.84
2023-03-03T05:15:05.286Z,4.86
2023-03-03T05:17:32.131Z,4.85
2023-03-03T05:19:58.824Z,4.87
2023-03-03T05:22:28.446Z,4.89
2023-03-03T05:24:55.648Z,4.90
2023-03-03T05:27:22.419Z,4.91
2023-03-03T05:29:49.439Z,4.92
2023-03-03T05:32:16.148Z,4.94
2023-03-03T05:34:43.141Z,4.95
2023-03-03T05:37:09.897Z,4.97
2023-03-03T05:39:36.699Z,4.98
2023-03-03T05:42:03.538Z,4.99
2023-03-03T05:44:30.288Z,4.99
2023-03-03T05:46:57.751Z,5.02
2023-03-03T05:49:26.062Z,5.04
2023-03-03T05:51:52.824Z,5.04
2023-03-03T05:54:19.540Z,5.05
2023-03-03T05:56:46.366Z,5.06
2023-03-03T05:59:13.066Z,5.07
2023-03-03T06:01:39.875Z,5.09
2023-03-03T06:04:06.651Z,5.08
2023-03-03T06:06:34.065Z,5.09
2023-03-03T06:09:01.306Z,4.83
2023-03-03T06:11:28.274Z,4.48
2023-03-03T06:13:54.949Z,4.16
2023-03-03T06:16:21.748Z,3.84
2023-03-03T06:18:48.501Z,3.62
2023-03-03T06:21:15.436Z,3.49
2023-03-03T06:23:42.271Z,3.42
2023-03-03T06:26:09.412Z,3.31
2023-03-03T06:28:36.127Z,3.26
2023-03-03T06:31:02.815Z,3.20
2023-03-03T06:33:31.177Z,3.18
2023-03-03T06:35:59.029Z,3.15
2023-03-03T06:38:26.729Z,3.15
2023-03-03T06:40:53.532Z,3.17
2023-03-03T06:43:20.610Z,3.17
2023-03-03T06:45:47.457Z,3.15
2023-03-03T06:48:14.215Z,3.12
2023-03-03T06:50:41.033Z,3.13
2023-03-03T06:53:14.935Z,3.14
2023-03-03T06:55:44.579Z,3.17
2023-03-03T06:58:19.727Z,3.13
2023-03-03T07:00:57.206Z,3.15
2023-03-03T07:03:32.228Z,3.20
2023-03-03T07:05:58.980Z,3.20
2023-03-03T07:08:31.232Z,3.14
2023-03-03T07:11:02.022Z,3.18
2023-03-03T07:13:29.344Z,3.29
2023-03-03T07:15:59.515Z,3.37
2023-03-03T07:18:54.610Z,3.47
2023-03-03T07:21:23.788Z,3.52
2023-03-03T07:23:52.553Z,3.55
2023-03-03T07:26:23.213Z,3.61
2023-03-03T07:28:54.436Z,3.61
2023-03-03T07:31:39.214Z,3.67
2023-03-03T07:34:42.713Z,3.75
2023-03-03T07:37:19.151Z,3.83
2023-03-03T07:39:47.417Z,3.89
2023-03-03T07:42:29.630Z,3.94
2023-03-03T07:45:32.720Z,4.01
2023-03-03T07:48:17.516Z,4.04
2023-03-03T07:50:44.282Z,4.10
2023-03-03T07:53:27.190Z,4.13
2023-03-03T07:55:54.456Z,4.21
2023-03-03T07:58:28.345Z,4.27
2023-03-03T08:01:33.649Z,4.03
2023-03-03T08:04:01.398Z,3.84
2023-03-03T08:06:35.896Z,3.72
2023-03-03T08:09:11.806Z,3.53
2023-03-03T08:12:00.298Z,3.58
2023-03-03T08:14:33.393Z,3.75
2023-03-03T08:17:01.979Z,3.89
2023-03-03T08:19:30.967Z,4.02
2023-03-03T08:22:18.713Z,4.13
2023-03-03T08:24:45.485Z,4.27
2023-03-03T08:27:12.165Z,4.40
2023-03-03T08:29:38.985Z,4.49
2023-03-03T08:32:05.779Z,4.57
2023-03-03T08:34:32.601Z,4.68
2023-03-03T08:36:59.399Z,4.78
2023-03-03T08:39:26.325Z,4.84
2023-03-03T08:41:53.012Z,4.87
2023-03-03T08:44:20.763Z,4.73
2023-03-03T08:46:47.607Z,4.50
2023-03-03T08:49:14.466Z,4.34
2023-03-03T08:51:41.467Z,4.41
2023-03-03T08:54:08.401Z,4.56
2023-03-03T08:56:35.161Z,4.63
2023-03-03T08:59:03.167Z,4.79
2023-03-03T09:01:33.675Z,4.96
2023-03-03T09:04:00.816Z,5.12
2023-03-03T09:06:27.792Z,5.22
2023-03-03T09:08:55.183Z,5.28
2023-03-03T09:11:27.641Z,5.38
2023-03-03T09:14:15.064Z,5.47
2023-03-03T09:16:52.474Z,5.47
2023-03-03T09:19:39.462Z,5.56
2023-03-03T09:22:20.859Z,5.61
2023-03-03T09:24:48.253Z,5.69
2023-03-03T09:27:31.508Z,5.73
2023-03-03T09:30:03.362Z,5.83
2023-03-03T09:32:39.822Z,5.87
2023-03-03T09:35:36.389Z,5.85
2023-03-03T09:38:26.524Z,5.84
2023-03-03T09:41:05.482Z,5.95
2023-03-03T09:43:35.180Z,6.07
2023-03-03T09:46:14.772Z,6.16
2023-03-03T09:48:53.178Z,6.23
2023-03-03T09:51:22.932Z,6.33
2023-03-03T09:53:58.607Z,6.44
2023-03-03T09:56:29.601Z,6.56
2023-03-03T09:59:25.449Z,6.66
2023-03-03T10:02:23.268Z,6.74
2023-03-03T10:05:38.048Z,6.86
2023-03-03T10:08:12.681Z,7.06
2023-03-03T10:11:05.245Z,7.28
2023-03-03T10:13:55.889Z,7.57
2023-03-03T10:16:58.608Z,7.81
2023-03-03T10:19:37.827Z,8.05
2023-03-03T10:22:19.590Z,8.20
2023-03-03T10:24:46.593Z,8.30
2023-03-03T10:27:38.643Z,8.38
2023-03-03T10:30:37.133Z,8.49
2023-03-03T10:33:28.506Z,8.57
2023-03-03T10:36:07.386Z,8.68
2023-03-03T10:38:39.688Z,8.91
2023-03-03T10:41:49.000Z,8.87
2023-03-03T10:44:26.195Z,8.95
2023-03-03T10:47:07.893Z,9.04
2023-03-03T10:49:53.433Z,9.17
2023-03-03T10:52:23.094Z,9.17
2023-03-03T10:54:49.642Z,9.31
2023-03-03T10:57:16.327Z,9.16
2023-03-03T10:59:42.844Z,9.13
2023-03-03T11:02:22.617Z,9.19
2023-03-03T11:04:49.206Z,9.31
2023-03-03T11:07:50.871Z,9.27
2023-03-03T11:10:20.583Z,9.51
2023-03-03T11:13:09.105Z,9.68
2023-03-03T11:15:44.474Z,9.68
2023-03-03T11:18:26.154Z,9.81
2023-03-03T11:21:06.565Z,10.09
2023-03-03T11:23:45.995Z,10.04
2023-03-03T11:26:19.542Z,9.85
2023-03-03T11:28:46.501Z,9.74
2023-03-03T11:31:19.799Z,9.78
2023-03-03T11:34:01.500Z,9.76
2023-03-03T11:36:29.158Z,9.74
2023-03-03T11:39:06.310Z,9.75
2023-03-03T11:41:36.984Z,9.87
2023-03-03T11:44:05.497Z,9.88
2023-03-03T11:46:38.488Z,9.77
2023-03-03T11:49:05.850Z,9.94
2023-03-03T11:51:34.553Z,10.13
2023-03-03T11:54:14.127Z,10.22
2023-03-03T11:56:44.788Z,10.11
2023-03-03T11:59:14.520Z,10.19
2023-03-03T12:01:41.163Z,10.25
2023-03-03T12:04:12.581Z,10.41
2023-03-03T12:07:12.962Z,10.58
2023-03-03T12:10:12.489Z,10.66
2023-03-03T12:12:46.325Z,10.61
2023-03-03T12:15:18.692Z,10.62
2023-03-03T12:17:45.882Z,10.66
2023-03-03T12:20:22.517Z,10.71
2023-03-03T12:23:07.172Z,10.79
2023-03-03T12:25:37.366Z,10.76
2023-03-03T12:28:12.182Z,10.87
2023-03-03T12:30:54.079Z,10.96
2023-03-03T12:33:54.074Z,11.16
2023-03-03T12:36:59.241Z,11.13
2023-03-03T12:39:44.888Z,11.22
2023-03-03T12:42:23.335Z,11.25
2023-03-03T12:45:12.735Z,11.35
2023-03-03T12:47:40.585Z,11.29
2023-03-03T12:50:11.173Z,11.19
2023-03-03T12:52:44.250Z,11.10
2023-03-03T12:55:16.883Z,11.15
2023-03-03T12:57:59.329Z,11.19
2023-03-03T13:00:26.034Z,11.31
2023-03-03T13:02:56.685Z,11.27
2023-03-03T13:05:43.103Z,11.21
2023-03-03T13:08:11.311Z,11.39
2023-03-03T13:10:55.766Z,11.40
2023-03-03T13:13:41.316Z,11.62
2023-03-03T13:16:17.239Z,11.92
2023-03-03T13:18:53.197Z,12.04
2023-03-03T13:21:25.914Z,11.89
2023-03-03T13:24:10.968Z,11.84
2023-03-03T13:26:38.361Z,12.11
2023-03-03T13:29:20.997Z,12.22
2023-03-03T13:31:48.708Z,12.24
2023-03-03T13:54:50.145Z,11.93
2023-03-03T13:57:17.072Z,11.93
2023-03-03T13:59:56.530Z,11.84
2023-03-03T14:02:46.133Z,11.80
2023-03-03T14:05:12.796Z,12.08
2023-03-03T14:07:41.249Z,12.11
2023-03-03T14:10:16.949Z,12.02
2023-03-03T14:12:46.890Z,11.86
2023-03-03T14:15:16.508Z,11.92
2023-03-03T14:17:53.218Z,12.10
2023-03-03T14:20:24.610Z,12.16
2023-03-03T14:23:09.430Z,12.27
2023-03-03T14:25:51.386Z,12.20
2023-03-03T14:28:18.024Z,12.02
2023-03-03T14:30:44.838Z,12.19
2023-03-03T14:33:11.460Z,12.24
2023-03-03T14:36:04.167Z,12.28
2023-03-03T14:38:33.851Z,12.34
2023-03-03T14:44:14.259Z,12.01
2023-03-03T14:46:41.674Z,11.83
2023-03-03T14:49:27.005Z,11.85
2023-03-03T14:51:53.599Z,12.00
2023-03-03T14:54:21.815Z,12.15
2023-03-03T14:56:57.872Z,11.95
2023-03-03T14:59:25.618Z,11.76
2023-03-03T15:01:57.912Z,11.41
2023-03-03T15:04:25.787Z,11.35
2023-03-03T15:06:53.481Z,11.32
2023-03-03T15:09:43.626Z,11.25
2023-03-03T15:12:36.707Z,11.28
2023-03-03T15:15:06.155Z,11.11
2023-03-03T15:17:40.171Z,11.03
2023-03-03T15:20:22.165Z,11.28
2023-03-03T15:23:07.166Z,11.71
2023-03-03T15:25:44.236Z,11.86
2023-03-03T15:28:26.838Z,12.03
2023-03-03T15:30:55.357Z,12.19
2023-03-03T15:33:27.188Z,12.21
2023-03-03T15:35:54.973Z,11.99
2023-03-03T15:38:36.959Z,11.73
2023-03-03T15:41:07.217Z,11.44
2023-03-03T15:43:45.202Z,11.22
2023-03-03T15:46:12.234Z,11.16
2023-03-03T15:48:38.811Z,11.12
2023-03-03T15:51:24.200Z,11.13
2023-03-03T15:53:56.936Z,11.11
2023-03-03T15:56:23.474Z,11.07
2023-03-03T15:58:49.937Z,11.19
2023-03-03T16:01:22.407Z,11.16
2023-03-03T16:03:56.341Z,10.90
2023-03-03T16:06:26.997Z,10.78
2023-03-03T16:08:53.445Z,10.62
2023-03-03T16:11:38.885Z,10.33
2023-03-03T16:14:08.506Z,10.05
2023-03-03T16:16:40.848Z,9.72
2023-03-03T16:19:29.360Z,9.60
2023-03-03T16:22:04.125Z,9.45
2023-03-03T16:24:43.826Z,9.44
2023-03-03T16:27:29.265Z,9.41
2023-03-03T16:30:05.096Z,9.31
2023-03-03T16:32:54.905Z,9.28
2023-03-03T16:35:21.641Z,9.18
2023-03-03T16:37:48.166Z,9.04
2023-03-03T16:40:21.011Z,8.92
2023-03-03T16:42:48.319Z,8.81
2023-03-03T16:45:17.625Z,8.74
2023-03-03T16:47:47.210Z,8.58
2023-03-03T16:50:21.065Z,8.51
2023-03-03T16:52:48.719Z,8.48
2023-03-03T16:55:24.032Z,8.33
2023-03-03T16:57:51.564Z,8.26
2023-03-03T17:00:20.734Z,8.19
2023-03-03T17:02:50.322Z,8.03
2023-03-03T17:05:22.124Z,7.87
2023-03-03T17:07:48.679Z,7.66
2023-03-03T17:10:17.915Z,7.30
2023-03-03T17:12:56.644Z,6.88
2023-03-03T17:15:51.049Z,6.62
2023-03-03T17:18:44.805Z,6.62
2023-03-03T17:21:31.131Z,6.58
2023-03-03T17:24:35.078Z,6.31
2023-03-03T17:27:40.199Z,6.26
2023-03-03T17:30:22.543Z,6.29
2023-03-03T17:32:55.154Z,6.20
2023-03-03T17:35:31.507Z,5.82
2023-03-03T17:38:12.770Z,5.64
2023-03-03T17:41:09.607Z,5.61
2023-03-03T17:43:54.092Z,5.50
2023-03-03T17:46:29.574Z,5.24
2023-03-03T17:48:58.886Z,5.23
2023-03-03T17:51:44.339Z,5.23
2023-03-03T17:54:19.573Z,5.56
2023-03-03T17:56:49.073Z,5.90
2023-03-03T17:59:52.244Z,6.22
2023-03-03T18:02:37.458Z,6.48
2023-03-03T18:05:22.561Z,6.69
2023-03-03T18:08:02.505Z,6.85
2023-03-03T18:10:42.841Z,6.98
2023-03-03T18:13:38.692Z,7.09
2023-03-03T18:16:19.215Z,7.18
2023-03-03T18:18:57.401Z,7.26
2023-03-03T18:21:30.669Z,7.32
2023-03-03T18:24:25.391Z,7.37
2023-03-03T18:26:55.941Z,7.42
2023-03-03T18:29:27.945Z,7.45
2023-03-03T18:31:57.497Z,7.48
2023-03-03T18:34:35.689Z,7.51
2023-03-03T18:37:09.943Z,7.54
2023-03-03T18:39:41.135Z,7.55
2023-03-03T18:42:16.984Z,7.54
2023-03-03T18:44:44.409Z,7.60
2023-03-03T18:47:11.445Z,7.66
2023-03-03T18:50:17.037Z,7.67
2023-03-03T18:53:06.476Z,7.68
2023-03-03T18:55:43.143Z,7.69
2023-03-03T18:58:15.954Z,7.69
2023-03-03T19:00:49.318Z,7.67
2023-03-03T19:03:37.890Z,7.65
2023-03-03T19:06:08.568Z,7.66
2023-03-03T19:08:56.247Z,7.65
2023-03-03T19:11:42.509Z,7.65
2023-03-03T19:14:17.807Z,7.64
2023-03-03T19:16:45.283Z,7.64
2023-03-03T19:19:17.207Z,7.63
2023-03-03T19:21:48.134Z,7.64
2023-03-03T19:24:33.749Z,7.63
2023-03-03T19:27:28.593Z,7.62
2023-03-03T19:30:13.938Z,7.63
2023-03-03T19:32:58.595Z,7.60
2023-03-03T19:35:55.077Z,7.61
2023-03-03T19:38:43.287Z,7.61
2023-03-03T19:41:18.542Z,7.59
2023-03-03T19:44:08.153Z,7.60
2023-03-03T19:46:50.436Z,7.60
2023-03-03T19:49:51.346Z,7.60
2023-03-03T19:52:17.956Z,7.62
2023-03-03T19:55:03.049Z,7.60
2023-03-03T19:58:10.026Z,7.60
2023-03-03T20:00:46.674Z,7.58
2023-03-03T20:03:50.562Z,7.58
2023-03-03T20:06:46.102Z,7.57
2023-03-03T20:09:23.378Z,7.56
2023-03-03T20:11:53.073Z,7.56
2023-03-03T20:14:49.285Z,7.55
2023-03-03T20:17:36.406Z,7.54
2023-03-03T20:20:06.028Z,7.53
2023-03-03T20:22:40.803Z,7.51
2023-03-03T20:25:19.727Z,7.50
2023-03-03T20:28:14.194Z,7.51
2023-03-03T20:31:07.120Z,7.48
2023-03-03T20:34:18.404Z,7.45
2023-03-03T20:37:03.251Z,7.44
2023-03-03T20:39:48.435Z,7.40
2023-03-03T20:43:07.414Z,7.38
2023-03-03T20:45:55.833Z,7.35
2023-03-03T20:48:40.738Z,7.31
2023-03-03T20:51:47.984Z,7.28
2023-03-03T20:54:41.870Z,7.25
2023-03-03T20:57:37.902Z,7.24
2023-03-03T21:00:12.004Z,7.22
2023-03-03T21:02:50.689Z,7.21
2023-03-03T21:05:18.453Z,7.21
2023-03-03T21:07:55.188Z,7.18
2023-03-03T21:10:24.281Z,7.16
2023-03-03T21:12:54.445Z,7.13
2023-03-03T21:15:28.389Z,7.10
2023-03-03T21:17:55.210Z,7.07
2023-03-03T21:20:31.802Z,7.03
2023-03-03T21:22:58.811Z,7.01
2023-03-03T21:25:40.759Z,6.97
2023-03-03T21:28:16.330Z,6.92
2023-03-03T21:31:01.620Z,6.89
2023-03-03T21:33:43.378Z,6.86
2023-03-03T21:36:10.741Z,6.83
2023-03-03T21:38:37.733Z,6.81
2023-03-03T21:41:04.610Z,6.78
2023-03-03T21:43:38.429Z,6.75
2023-03-03T21:46:05.188Z,6.74
2023-03-03T21:48:32.008Z,6.71
2023-03-03T21:50:58.556Z,6.69
2023-03-03T21:53:26.536Z,6.64
2023-03-03T21:55:53.460Z,6.62
2023-03-03T21:58:19.939Z,6.60
2023-03-03T22:00:46.404Z,6.57
2023-03-03T22:03:13.689Z,6.53
2023-03-03T22:05:40.703Z,6.52
2023-03-03T22:08:07.258Z,6.50
2023-03-03T22:10:34.065Z,6.47
2023-03-03T22:13:00.617Z,6.45
2023-03-03T22:15:30.448Z,6.43
2023-03-03T22:17:57.102Z,6.40
2023-03-03T22:20:23.615Z,6.38
2023-03-03T22:22:50.124Z,6.36
2023-03-03T22:25:16.552Z,6.35
2023-03-03T22:27:43.060Z,6.31
2023-03-03T22:30:09.923Z,6.28
2023-03-03T22:32:36.494Z,6.26
2023-03-03T22:35:03.019Z,6.25
2023-03-03T22:37:29.569Z,6.23
2023-03-03T22:39:56.011Z,6.21
2023-03-03T22:42:23.418Z,6.19
2023-03-03T22:44:49.852Z,6.16
2023-03-03T22:47:16.429Z,6.15
2023-03-03T22:49:42.938Z,6.13
2023-03-03T22:52:09.480Z,6.11
2023-03-03T22:54:36.001Z,6.09
2023-03-03T22:57:02.533Z,6.07
2023-03-03T22:59:28.999Z,6.04
2023-03-03T23:01:56.124Z,6.03
2023-03-03T23:04:22.801Z,5.99
2023-03-03T23:06:50.131Z,5.97
2023-03-03T23:09:16.637Z,5.96
2023-03-03T23:11:43.357Z,5.95
2023-03-03T23:14:10.035Z,5.90
2023-03-03T23:16:36.677Z,5.86
2023-03-03T23:19:03.343Z,5.82
2023-03-03T23:21:29.938Z,5.81
2023-03-03T23:23:56.639Z,5.80
2023-03-03T23:26:23.301Z,5.79
2023-03-03T23:28:49.930Z,5.78
2023-03-03T23:31:16.537Z,5.77
2023-03-03T23:33:43.127Z,5.76
2023-03-03T23:36:09.998Z,5.76
2023-03-03T23:38:36.612Z,5.75
2023-03-03T23:41:03.177Z,5.76
2023-03-03T23:43:29.889Z,5.75
2023-03-03T23:45:56.506Z,5.71
2023-03-03T23:48:23.064Z,5.69
2023-03-03T23:50:49.649Z,5.64
2023-03-03T23:53:16.355Z,5.60
2023-03-03T23:55:43.378Z,5.61
2023-03-03T23:58:10.221Z,5.60
